createdAt,value
2018-05-13T00:01:27.853Z,12.90
2018-05-13T00:03:53.779Z,13.53
2018-05-13T00:06:19.685Z,12.97
2018-05-13T00:08:45.609Z,13.53
2018-05-13T00:11:11.560Z,13.40
2018-05-13T00:13:37.485Z,12.70
2018-05-13T00:16:03.426Z,14.37
2018-05-13T00:18:29.362Z,13.53
2018-05-13T00:20:55.308Z,13.93
2018-05-13T00:23:21.209Z,14.97
2018-05-13T00:25:47.173Z,12.67
2018-05-13T00:28:13.082Z,13.43
2018-05-13T00:30:39.002Z,14.47
2018-05-13T00:33:04.937Z,15.73
2018-05-13T00:35:30.859Z,14.37
2018-05-13T00:37:56.801Z,14.33
2018-05-13T00:40:22.737Z,14.40
2018-05-13T00:42:48.712Z,15.37
2018-05-13T00:45:14.677Z,14.10
2018-05-13T00:47:40.615Z,15.77
2018-05-13T00:50:06.501Z,15.77
2018-05-13T00:52:32.455Z,13.53
2018-05-13T00:54:58.381Z,17.83
2018-05-13T00:57:24.316Z,14.27
2018-05-13T00:59:50.273Z,15.07
2018-05-13T01:02:16.227Z,16.30
2018-05-13T01:04:42.147Z,15.43
2018-05-13T01:07:08.046Z,16.63
2018-05-13T01:09:33.979Z,16.10
2018-05-13T01:11:59.889Z,14.97
2018-05-13T01:14:25.840Z,14.70
2018-05-13T01:16:51.759Z,16.00
2018-05-13T01:19:17.663Z,16.60
2018-05-13T01:21:43.583Z,17.70
2018-05-13T01:24:09.515Z,16.93
2018-05-13T01:26:35.485Z,16.10
2018-05-13T01:29:01.418Z,16.50
2018-05-13T01:31:27.349Z,17.00
2018-05-13T01:33:53.308Z,15.77
2018-05-13T01:36:19.258Z,17.53
2018-05-13T01:38:45.198Z,17.50
2018-05-13T01:41:11.128Z,16.63
2018-05-13T01:43:37.064Z,18.33
2018-05-13T01:46:02.996Z,18.43
2018-05-13T01:48:28.942Z,19.07
2018-05-13T01:50:54.844Z,17.50
2018-05-13T01:53:20.767Z,19.17
2018-05-13T01:55:46.670Z,19.63
2018-05-13T01:58:12.594Z,17.37
2018-05-13T02:00:38.559Z,19.87
2018-05-13T02:03:04.491Z,16.20
2018-05-13T02:05:30.410Z,17.00
2018-05-13T02:07:56.328Z,18.97
2018-05-13T02:10:22.245Z,18.97
2018-05-13T02:12:48.189Z,16.33
2018-05-13T02:15:14.139Z,15.90
2018-05-13T02:17:40.045Z,17.47
2018-05-13T02:20:05.969Z,17.90
2018-05-13T02:22:31.905Z,16.37
2018-05-13T02:24:57.841Z,15.67
2018-05-13T02:27:23.773Z,16.70
2018-05-13T02:29:49.695Z,17.73
2018-05-13T02:32:15.600Z,18.33
2018-05-13T02:34:41.543Z,17.40
2018-05-13T02:37:07.472Z,18.57
2018-05-13T02:39:33.435Z,19.20
2018-05-13T02:41:59.345Z,20.37
2018-05-13T02:44:25.278Z,20.17
2018-05-13T02:46:51.204Z,20.17
2018-05-13T02:49:17.100Z,19.43
2018-05-13T02:51:43.032Z,20.30
2018-05-13T02:54:08.968Z,17.37
2018-05-13T02:56:34.890Z,17.27
2018-05-13T02:59:00.812Z,16.97
2018-05-13T03:01:26.717Z,17.23
2018-05-13T03:03:52.632Z,16.77
2018-05-13T03:06:18.573Z,18.50
2018-05-13T03:08:44.506Z,17.63
2018-05-13T03:11:10.432Z,19.23
2018-05-13T03:13:36.361Z,20.67
2018-05-13T03:16:02.306Z,20.30
2018-05-13T03:18:28.229Z,18.43
2018-05-13T03:20:54.120Z,18.47
2018-05-13T03:23:20.069Z,19.60
2018-05-13T03:25:45.982Z,21.30
2018-05-13T03:28:11.927Z,21.73
2018-05-13T03:30:37.841Z,22.73
2018-05-13T03:33:03.751Z,20.53
2018-05-13T03:35:29.683Z,22.43
2018-05-13T03:37:55.608Z,21.50
2018-05-13T03:40:21.525Z,22.03
2018-05-13T03:42:47.431Z,22.90
2018-05-13T03:45:13.371Z,20.63
2018-05-13T03:47:39.291Z,23.97
2018-05-13T03:50:05.213Z,20.33
2018-05-13T03:52:31.118Z,21.40
2018-05-13T03:54:57.048Z,20.83
2018-05-13T03:57:22.952Z,21.60
2018-05-13T03:59:48.902Z,18.37
2018-05-13T04:02:14.810Z,19.20
2018-05-13T04:04:40.731Z,19.50
2018-05-13T04:07:06.644Z,21.20
2018-05-13T04:09:45.669Z,22.60
2018-05-13T04:12:23.870Z,22.77
2018-05-13T04:15:02.008Z,23.97
2018-05-13T04:17:27.952Z,22.33
2018-05-13T04:19:53.876Z,19.83
2018-05-13T04:22:19.801Z,18.63
2018-05-13T04:24:45.712Z,22.60
2018-05-13T04:27:11.656Z,22.10
2018-05-13T04:29:37.570Z,23.73
2018-05-13T04:32:03.492Z,22.50
2018-05-13T04:34:29.424Z,22.00
2018-05-13T04:36:55.348Z,22.87
2018-05-13T04:39:21.274Z,21.07
2018-05-13T04:41:47.206Z,20.73
2018-05-13T04:44:13.155Z,20.87
2018-05-13T04:46:39.055Z,22.53
2018-05-13T04:49:04.988Z,22.50
2018-05-13T04:51:30.889Z,18.97
2018-05-13T04:53:56.829Z,19.67
2018-05-13T04:56:22.770Z,20.80
2018-05-13T04:58:48.673Z,19.57
2018-05-13T05:01:14.598Z,20.00
2018-05-13T05:03:40.528Z,20.87
2018-05-13T05:06:06.449Z,20.50
2018-05-13T05:08:32.369Z,21.40
2018-05-13T05:10:58.281Z,23.90
2018-05-13T05:13:24.209Z,19.70
2018-05-13T05:15:50.182Z,22.77
2018-05-13T05:18:16.094Z,21.27
2018-05-13T05:20:42.032Z,20.10
2018-05-13T05:23:07.974Z,18.30
2018-05-13T05:25:33.890Z,20.80
2018-05-13T05:27:59.916Z,21.03
2018-05-13T05:30:25.843Z,21.23
2018-05-13T05:32:51.767Z,20.33
2018-05-13T05:35:17.699Z,19.90
2018-05-13T05:37:43.613Z,20.43
2018-05-13T05:40:09.548Z,20.50
2018-05-13T05:42:35.468Z,19.43
2018-05-13T05:45:01.394Z,21.97
2018-05-13T05:47:27.299Z,21.63
2018-05-13T05:49:53.205Z,20.93
2018-05-13T05:52:19.119Z,22.47
2018-05-13T05:54:45.020Z,21.00
2018-05-13T05:57:10.931Z,21.00
2018-05-13T05:59:36.905Z,21.60
2018-05-13T06:02:02.882Z,20.43
2018-05-13T06:04:28.817Z,24.33
2018-05-13T06:06:54.754Z,24.23
2018-05-13T06:09:20.704Z,21.93
2018-05-13T06:11:46.630Z,18.20
2018-05-13T06:14:12.565Z,19.20
2018-05-13T06:16:38.480Z,19.57
2018-05-13T06:19:04.412Z,19.87
2018-05-13T06:21:31.144Z,17.73
2018-05-13T06:23:57.081Z,18.40
2018-05-13T06:26:23.012Z,20.20
2018-05-13T06:28:48.930Z,18.37
2018-05-13T06:31:14.938Z,18.57
2018-05-13T06:33:40.857Z,20.03
2018-05-13T06:36:06.848Z,21.13
2018-05-13T06:38:32.766Z,18.43
2018-05-13T06:40:58.701Z,19.20
2018-05-13T06:43:24.617Z,20.93
2018-05-13T06:45:50.536Z,17.57
2018-05-13T06:48:16.465Z,19.23
2018-05-13T06:50:42.395Z,19.13
2018-05-13T06:53:08.331Z,18.43
2018-05-13T06:55:34.241Z,19.67
2018-05-13T06:58:00.179Z,19.20
2018-05-13T07:00:26.111Z,20.20
2018-05-13T07:02:52.062Z,21.20
2018-05-13T07:05:17.984Z,18.97
2018-05-13T07:07:43.900Z,21.10
2018-05-13T07:10:09.832Z,19.60
2018-05-13T07:12:35.762Z,18.67
2018-05-13T07:15:01.700Z,20.30
2018-05-13T07:17:27.670Z,19.60
2018-05-13T07:19:53.605Z,20.00
2018-05-13T07:22:19.520Z,20.47
2018-05-13T07:24:45.438Z,23.33
2018-05-13T07:27:11.380Z,21.43
2018-05-13T07:29:37.333Z,23.33
2018-05-13T07:32:03.287Z,19.97
2018-05-13T07:34:29.210Z,23.33
2018-05-13T07:36:55.151Z,22.07
2018-05-13T07:39:21.176Z,22.23
2018-05-13T07:41:47.076Z,22.33
2018-05-13T07:44:13.010Z,19.43
2018-05-13T07:46:38.942Z,22.53
2018-05-13T07:49:04.857Z,21.93
2018-05-13T07:51:30.793Z,20.93
2018-05-13T07:53:56.725Z,18.70
2018-05-13T07:56:22.652Z,19.07
2018-05-13T07:58:48.579Z,18.60
2018-05-13T08:01:14.513Z,21.83
2018-05-13T08:03:40.410Z,22.90
2018-05-13T08:06:06.367Z,20.90
2018-05-13T08:08:32.275Z,21.17
2018-05-13T08:10:58.206Z,17.73
2018-05-13T08:13:24.144Z,17.70
2018-05-13T08:15:50.075Z,19.00
2018-05-13T08:18:16.024Z,21.77
2018-05-13T08:20:41.965Z,18.20
2018-05-13T08:23:07.911Z,21.20
2018-05-13T08:25:33.841Z,21.27
2018-05-13T08:27:59.765Z,19.23
2018-05-13T08:30:25.691Z,16.37
2018-05-13T08:32:51.653Z,17.60
2018-05-13T08:35:17.576Z,18.30
2018-05-13T08:37:43.501Z,18.07
2018-05-13T08:40:09.453Z,14.10
2018-05-13T08:42:35.408Z,16.67
2018-05-13T08:45:01.340Z,15.87
2018-05-13T08:47:27.256Z,15.37
2018-05-13T08:49:53.200Z,16.73
2018-05-13T08:52:19.188Z,16.87
2018-05-13T08:54:45.063Z,16.23
2018-05-13T08:57:10.981Z,15.40
2018-05-13T08:59:36.935Z,16.67
2018-05-13T09:02:02.859Z,16.00
2018-05-13T09:04:28.794Z,15.00
2018-05-13T09:06:54.718Z,13.40
2018-05-13T09:09:20.675Z,14.90
2018-05-13T09:11:46.588Z,13.30
2018-05-13T09:14:12.619Z,15.60
2018-05-13T09:16:38.517Z,12.43
2018-05-13T09:19:04.427Z,10.60
2018-05-13T09:21:30.342Z,11.27
2018-05-13T09:23:56.256Z,13.03
2018-05-13T09:26:22.363Z,13.20
2018-05-13T09:28:48.266Z,13.33
2018-05-13T09:31:14.177Z,12.20
2018-05-13T09:33:40.119Z,10.40
2018-05-13T09:36:06.043Z,11.20
2018-05-13T09:38:31.998Z,10.87
2018-05-13T09:40:57.901Z,12.13
2018-05-13T09:43:23.845Z,10.47
2018-05-13T09:45:49.781Z,10.27
2018-05-13T09:48:15.739Z,9.70
2018-05-13T09:50:41.672Z,12.87
2018-05-13T09:53:07.609Z,12.37
2018-05-13T09:55:33.554Z,11.90
2018-05-13T09:57:59.527Z,12.37
2018-05-13T10:00:25.460Z,11.67
2018-05-13T10:02:51.376Z,12.07
2018-05-13T10:05:17.296Z,9.90
2018-05-13T10:07:43.238Z,10.10
2018-05-13T10:10:09.164Z,10.13
2018-05-13T10:12:35.067Z,10.77
2018-05-13T10:15:01.020Z,10.83
2018-05-13T10:17:26.945Z,10.63
2018-05-13T10:19:52.885Z,10.17
2018-05-13T10:22:18.813Z,9.73
2018-05-13T10:24:44.745Z,10.30
2018-05-13T10:27:10.844Z,11.67
2018-05-13T10:29:36.788Z,9.73
2018-05-13T10:32:02.728Z,10.50
2018-05-13T10:34:28.692Z,10.97
2018-05-13T10:36:54.645Z,9.13
2018-05-13T10:39:20.554Z,10.00
2018-05-13T10:41:46.550Z,10.03
2018-05-13T10:44:12.501Z,9.60
2018-05-13T10:46:38.420Z,9.90
2018-05-13T10:49:04.338Z,8.87
2018-05-13T10:51:30.258Z,8.43
2018-05-13T10:53:56.171Z,6.90
2018-05-13T10:56:22.099Z,7.10
2018-05-13T10:58:48.017Z,7.53
2018-05-13T11:01:13.966Z,7.10
2018-05-13T11:03:39.901Z,7.37
2018-05-13T11:06:05.846Z,6.60
2018-05-13T11:08:31.800Z,6.30
2018-05-13T11:10:57.721Z,6.93
2018-05-13T11:13:23.677Z,7.20
2018-05-13T11:15:49.613Z,6.00
2018-05-13T11:18:15.536Z,6.30
2018-05-13T11:20:41.577Z,5.72
2018-05-13T11:23:07.482Z,6.25
2018-05-13T11:25:33.413Z,5.62
2018-05-13T11:27:59.351Z,5.25
2018-05-13T11:30:25.284Z,4.80
2018-05-13T11:32:51.213Z,4.70
2018-05-13T11:35:17.156Z,4.20
2018-05-13T11:37:43.130Z,4.55
2018-05-13T11:40:09.074Z,4.70
2018-05-13T11:42:35.010Z,4.47
2018-05-13T11:45:00.985Z,4.00
2018-05-13T11:47:26.908Z,4.68
2018-05-13T11:49:52.846Z,4.40
2018-05-13T11:52:18.873Z,4.45
2018-05-13T11:54:44.796Z,4.40
2018-05-13T11:57:11.714Z,5.15
2018-05-13T11:59:37.639Z,4.87
2018-05-13T12:02:03.620Z,4.82
2018-05-13T12:04:29.573Z,5.18
2018-05-13T12:06:55.492Z,4.55
2018-05-13T12:09:21.463Z,4.75
2018-05-13T12:11:47.435Z,5.12
2018-05-13T12:14:13.403Z,5.07
2018-05-13T12:16:39.325Z,4.70
2018-05-13T12:19:05.467Z,4.70
2018-05-13T12:21:31.376Z,3.90
2018-05-13T12:23:57.331Z,4.43
2018-05-13T12:26:23.280Z,4.68
2018-05-13T12:28:49.243Z,4.70
2018-05-13T12:31:15.217Z,4.90
2018-05-13T12:33:41.137Z,4.15
2018-05-13T12:36:07.119Z,4.10
2018-05-13T12:38:33.097Z,4.50
2018-05-13T12:40:59.037Z,4.00
2018-05-13T12:43:24.969Z,3.87
2018-05-13T12:45:50.923Z,4.07
2018-05-13T12:48:16.857Z,4.37
2018-05-13T12:50:42.776Z,4.55
2018-05-13T12:53:08.718Z,4.47
2018-05-13T12:55:34.659Z,3.75
2018-05-13T12:58:00.647Z,4.30
2018-05-13T13:00:26.564Z,4.72
2018-05-13T13:02:52.538Z,4.37
2018-05-13T13:05:18.479Z,4.60
2018-05-13T13:07:44.547Z,4.90
2018-05-13T13:10:10.386Z,4.47
2018-05-13T13:12:36.305Z,4.47
2018-05-13T13:15:02.283Z,4.68
2018-05-13T13:17:28.205Z,4.35
2018-05-13T13:19:54.133Z,4.87
2018-05-13T13:22:20.093Z,4.32
2018-05-13T13:24:46.050Z,4.93
2018-05-13T13:27:11.997Z,4.78
2018-05-13T13:29:37.928Z,4.93
2018-05-13T13:32:03.855Z,5.00
2018-05-13T13:34:29.833Z,5.05
2018-05-13T13:36:55.798Z,5.07
2018-05-13T13:39:21.731Z,4.80
2018-05-13T13:41:47.676Z,5.18
2018-05-13T13:44:13.617Z,4.85
2018-05-13T13:46:39.579Z,5.30
2018-05-13T13:49:05.514Z,5.30
2018-05-13T13:51:31.458Z,4.82
2018-05-13T13:53:57.465Z,4.53
2018-05-13T13:56:23.438Z,4.90
2018-05-13T13:58:49.385Z,4.80
2018-05-13T14:01:15.341Z,5.20
2018-05-13T14:03:41.261Z,5.40
2018-05-13T14:06:07.180Z,6.78
2018-05-13T14:08:33.139Z,7.12
2018-05-13T14:10:59.073Z,5.75
2018-05-13T14:13:25.008Z,5.10
2018-05-13T14:15:50.911Z,5.00
2018-05-13T14:18:16.881Z,4.70
2018-05-13T14:20:42.937Z,4.62
2018-05-13T14:23:08.844Z,4.75
2018-05-13T14:25:34.813Z,5.25
2018-05-13T14:28:00.758Z,5.68
2018-05-13T14:30:26.730Z,6.20
2018-05-13T14:32:52.642Z,4.93
2018-05-13T14:35:18.629Z,5.12
2018-05-13T14:37:44.555Z,4.93
2018-05-13T14:40:10.492Z,5.20
2018-05-13T14:42:36.449Z,5.30
2018-05-13T14:45:02.448Z,5.85
2018-05-13T14:47:28.389Z,5.72
2018-05-13T14:49:54.339Z,5.10
2018-05-13T14:52:20.237Z,5.60
2018-05-13T14:54:46.184Z,5.35
2018-05-13T14:57:12.090Z,5.10
2018-05-13T14:59:38.017Z,6.32
2018-05-13T15:02:03.956Z,5.50
2018-05-13T15:04:29.887Z,6.03
2018-05-13T15:06:55.834Z,5.40
2018-05-13T15:09:22.153Z,5.03
2018-05-13T15:11:47.746Z,5.10
2018-05-13T15:14:13.714Z,5.32
2018-05-13T15:16:39.703Z,5.12
2018-05-13T15:19:05.624Z,5.03
2018-05-13T15:21:31.575Z,5.68
2018-05-13T15:23:57.526Z,5.30
2018-05-13T15:26:23.487Z,5.22
2018-05-13T15:28:49.509Z,5.10
2018-05-13T15:31:15.413Z,5.85
2018-05-13T15:33:41.358Z,4.85
2018-05-13T15:36:07.292Z,4.72
2018-05-13T15:38:33.227Z,4.95
2018-05-13T15:40:59.210Z,5.12
2018-05-13T15:43:26.922Z,5.03
2018-05-13T15:45:52.784Z,4.80
2018-05-13T15:48:18.725Z,4.35
2018-05-13T15:50:44.691Z,4.60
2018-05-13T15:53:10.627Z,5.07
2018-05-13T15:55:36.584Z,4.47
2018-05-13T15:58:02.558Z,4.30
2018-05-13T16:00:28.620Z,4.60
2018-05-13T16:02:54.568Z,4.00
2018-05-13T16:05:20.485Z,4.10
2018-05-13T16:07:46.391Z,4.00
2018-05-13T16:10:12.316Z,3.72
2018-05-13T16:12:38.308Z,3.97
2018-05-13T16:15:04.233Z,5.28
2018-05-13T16:17:30.159Z,5.03
2018-05-13T16:19:56.073Z,4.78
2018-05-13T16:22:22.020Z,5.50
2018-05-13T16:24:47.969Z,4.62
2018-05-13T16:27:13.953Z,4.72
2018-05-13T16:29:39.948Z,4.45
2018-05-13T16:32:05.889Z,4.15
2018-05-13T16:34:31.837Z,4.20
2018-05-13T16:36:57.776Z,4.10
2018-05-13T16:39:23.740Z,4.30
2018-05-13T16:41:49.683Z,4.05
2018-05-13T16:44:15.638Z,4.10
2018-05-13T16:46:41.585Z,4.47
2018-05-13T16:49:07.521Z,4.50
2018-05-13T16:51:33.473Z,4.30
2018-05-13T16:53:59.418Z,3.90
2018-05-13T16:56:25.370Z,4.00
2018-05-13T16:58:51.442Z,4.25
2018-05-13T17:01:17.419Z,4.28
2018-05-13T17:03:43.348Z,3.92
2018-05-13T17:06:09.323Z,3.85
2018-05-13T17:08:35.243Z,3.80
2018-05-13T17:11:01.193Z,3.60
2018-05-13T17:13:27.109Z,3.22
2018-05-13T17:15:53.073Z,3.50
2018-05-13T17:18:19.017Z,3.70
2018-05-13T17:20:44.997Z,3.47
2018-05-13T17:23:11.099Z,3.33
2018-05-13T17:25:37.046Z,3.42
2018-05-13T17:28:03.006Z,3.42
2018-05-13T17:30:28.951Z,3.33
2018-05-13T17:32:54.919Z,3.47
2018-05-13T17:35:20.950Z,3.00
2018-05-13T17:37:46.957Z,3.58
2018-05-13T17:40:12.938Z,3.45
2018-05-13T17:42:38.931Z,3.12
2018-05-13T17:45:04.903Z,3.20
2018-05-13T17:47:31.811Z,3.00
2018-05-13T17:49:57.803Z,3.10
2018-05-13T17:52:23.763Z,2.70
2018-05-13T17:54:49.746Z,3.03
2018-05-13T17:57:15.762Z,3.37
2018-05-13T17:59:41.669Z,3.10
2018-05-13T18:02:07.995Z,3.10
2018-05-13T18:04:33.933Z,3.60
2018-05-13T18:06:59.934Z,2.73
2018-05-13T18:09:25.934Z,2.77
2018-05-13T18:11:51.915Z,3.10
2018-05-13T18:14:17.979Z,3.47
2018-05-13T18:16:43.945Z,3.23
2018-05-13T18:19:09.933Z,3.10
2018-05-13T18:21:35.923Z,2.87
2018-05-13T18:24:01.841Z,3.57
2018-05-13T18:26:27.863Z,3.37
2018-05-13T18:28:53.803Z,3.10
2018-05-13T18:31:19.839Z,2.70
2018-05-13T18:33:45.851Z,2.97
2018-05-13T18:36:12.819Z,3.03
2018-05-13T18:38:39.717Z,2.70
2018-05-13T18:41:05.733Z,2.90
2018-05-13T18:43:31.672Z,2.83
2018-05-13T18:45:57.667Z,3.00
2018-05-13T18:48:23.748Z,2.77
2018-05-13T18:50:49.722Z,3.20
2018-05-13T18:53:16.022Z,2.80
2018-05-13T18:55:42.098Z,2.90
2018-05-13T18:58:08.164Z,3.00
2018-05-13T19:00:34.346Z,2.87
2018-05-13T19:03:00.301Z,3.00
2018-05-13T19:05:26.259Z,2.90
2018-05-13T19:07:52.365Z,2.70
2018-05-13T19:10:18.353Z,2.60
2018-05-13T19:12:44.311Z,3.10
2018-05-13T19:15:10.264Z,2.83
2018-05-13T19:17:36.252Z,2.70
2018-05-13T19:20:02.197Z,3.00
2018-05-13T19:22:28.202Z,3.10
2018-05-13T19:24:54.280Z,3.13
2018-05-13T19:27:20.227Z,2.90
2018-05-13T19:29:46.242Z,2.73
2018-05-13T19:32:12.223Z,3.07
2018-05-13T19:34:38.256Z,3.13
2018-05-13T19:37:04.300Z,2.83
2018-05-13T19:39:31.277Z,2.87
2018-05-13T19:41:57.261Z,2.80
2018-05-13T19:44:23.269Z,2.80
2018-05-13T19:46:49.323Z,2.97
2018-05-13T19:49:15.272Z,3.13
2018-05-13T19:51:41.235Z,2.83
2018-05-13T19:54:08.025Z,2.80
2018-05-13T19:56:33.974Z,2.80
2018-05-13T19:58:59.918Z,2.90
2018-05-13T20:01:25.821Z,3.20
2018-05-13T20:03:52.022Z,2.70
2018-05-13T20:06:17.993Z,3.10
2018-05-13T20:08:43.995Z,3.20
2018-05-13T20:11:09.977Z,3.50
2018-05-13T20:13:36.012Z,3.20
2018-05-13T20:16:01.939Z,2.80
2018-05-13T20:18:27.895Z,3.30
2018-05-13T20:20:53.844Z,3.30
2018-05-13T20:23:23.938Z,3.30
2018-05-13T20:25:49.907Z,2.90
2018-05-13T20:28:15.824Z,3.10
2018-05-13T20:30:41.796Z,2.90
2018-05-13T20:33:07.784Z,3.40
2018-05-13T20:35:33.799Z,3.00
2018-05-13T20:37:59.782Z,2.87
2018-05-13T20:40:26.710Z,2.97
2018-05-13T20:42:53.662Z,3.27
2018-05-13T20:45:19.664Z,2.80
2018-05-13T20:47:45.608Z,3.17
2018-05-13T20:50:11.550Z,2.90
2018-05-13T20:52:37.553Z,2.90
2018-05-13T20:55:03.532Z,2.97
2018-05-13T20:57:29.477Z,2.80
2018-05-13T20:59:55.451Z,3.17
2018-05-13T21:02:22.345Z,3.00
2018-05-13T21:04:48.289Z,3.07
2018-05-13T21:07:14.283Z,3.40
2018-05-13T21:09:40.241Z,3.40
2018-05-13T21:12:06.179Z,3.13
2018-05-13T21:14:32.105Z,3.47
2018-05-13T21:16:58.049Z,3.27
2018-05-13T21:19:23.987Z,3.27
2018-05-13T21:21:49.910Z,3.00
2018-05-13T21:24:15.843Z,3.40
2018-05-13T21:26:41.758Z,3.87
2018-05-13T21:29:07.732Z,3.30
2018-05-13T21:31:33.657Z,2.93
2018-05-13T21:33:59.609Z,3.03
2018-05-13T21:36:25.573Z,3.00
2018-05-13T21:38:51.489Z,3.20
2018-05-13T21:41:17.469Z,3.50
2018-05-13T21:43:43.390Z,3.33
2018-05-13T21:46:09.312Z,3.30
2018-05-13T21:48:35.228Z,3.17
2018-05-13T21:51:01.195Z,3.33
2018-05-13T21:53:27.097Z,3.07
2018-05-13T21:55:53.012Z,3.00
2018-05-13T21:58:18.951Z,3.00
2018-05-13T22:00:44.894Z,2.90
2018-05-13T22:03:10.838Z,2.93
2018-05-13T22:05:36.755Z,3.13
2018-05-13T22:08:02.712Z,3.13
2018-05-13T22:10:28.621Z,3.17
2018-05-13T22:12:54.614Z,3.40
2018-05-13T22:15:20.528Z,3.67
2018-05-13T22:17:46.447Z,2.80
2018-05-13T22:20:12.413Z,2.70
2018-05-13T22:22:38.367Z,3.17
2018-05-13T22:25:04.306Z,2.93
2018-05-13T22:27:30.234Z,3.23
2018-05-13T22:29:56.174Z,3.60
2018-05-13T22:32:22.096Z,3.27
2018-05-13T22:34:48.052Z,3.37
2018-05-13T22:37:13.978Z,3.43
2018-05-13T22:39:39.948Z,3.13
2018-05-13T22:42:05.858Z,3.27
2018-05-13T22:44:31.789Z,3.33
2018-05-13T22:46:57.708Z,3.40
2018-05-13T22:49:23.628Z,3.20
2018-05-13T22:51:49.563Z,3.43
2018-05-13T22:54:15.489Z,3.37
2018-05-13T22:56:41.427Z,3.07
2018-05-13T22:59:07.353Z,2.90
2018-05-13T23:01:33.291Z,3.67
2018-05-13T23:03:59.215Z,3.40
2018-05-13T23:06:25.213Z,3.20
2018-05-13T23:08:51.137Z,3.20
2018-05-13T23:11:17.062Z,3.60
2018-05-13T23:13:42.993Z,3.27
2018-05-13T23:16:08.909Z,3.10
2018-05-13T23:21:27.698Z,3.60
2018-05-13T23:23:53.634Z,3.27
2018-05-13T23:26:19.540Z,3.33
2018-05-13T23:28:45.473Z,3.33
2018-05-13T23:31:11.392Z,3.70
2018-05-13T23:33:37.307Z,3.40
2018-05-13T23:36:03.232Z,3.30
2018-05-13T23:38:29.163Z,3.17
2018-05-13T23:40:55.098Z,3.03
2018-05-13T23:43:21.034Z,3.30
2018-05-13T23:45:46.967Z,3.60
2018-05-13T23:48:12.898Z,3.00
2018-05-13T23:50:38.838Z,3.23
2018-05-13T23:53:04.756Z,3.67
2018-05-13T23:55:30.672Z,3.50
2018-05-13T23:57:56.568Z,3.67
